sensor_id;sensor_type;location;lat;lon;timestamp;pressure;altitude;pressure_sealevel;temperature;humidity
63700;BME280;49845;47.130;142.766;2022-07-19T00:00:07;99598.00;;;23.56;63.50
63700;BME280;49845;47.130;142.766;2022-07-19T00:02:39;99600.03;;;23.63;63.54
63700;BME280;49845;47.130;142.766;2022-07-19T00:05:11;99599.78;;;23.78;63.18
63700;BME280;49845;47.130;142.766;2022-07-19T00:07:43;99608.53;;;23.80;61.30
63700;BME280;49845;47.130;142.766;2022-07-19T00:10:15;99558.88;;;23.34;59.46
63700;BME280;49845;47.130;142.766;2022-07-19T00:12:48;99605.00;;;23.68;60.78
63700;BME280;49845;47.130;142.766;2022-07-19T00:15:18;99598.78;;;23.90;62.70
63700;BME280;49845;47.130;142.766;2022-07-19T00:17:49;99610.84;;;24.17;62.64
63700;BME280;49845;47.130;142.766;2022-07-19T00:20:21;99610.97;;;24.36;61.22
63700;BME280;49845;47.130;142.766;2022-07-19T00:22:52;99607.28;;;24.48;61.24
63700;BME280;49845;47.130;142.766;2022-07-19T00:25:23;99610.69;;;24.50;60.85
63700;BME280;49845;47.130;142.766;2022-07-19T00:27:55;99602.44;;;24.42;59.60
63700;BME280;49845;47.130;142.766;2022-07-19T00:30:26;99601.34;;;24.66;60.95
63700;BME280;49845;47.130;142.766;2022-07-19T00:32:57;99600.31;;;24.78;60.17
63700;BME280;49845;47.130;142.766;2022-07-19T00:35:27;99603.34;;;24.94;60.06
63700;BME280;49845;47.130;142.766;2022-07-19T00:38:04;99603.47;;;24.93;58.83
63700;BME280;49845;47.130;142.766;2022-07-19T00:40:35;99601.75;;;24.82;58.75
63700;BME280;49845;47.130;142.766;2022-07-19T00:43:08;99593.72;;;24.82;57.05
63700;BME280;49845;47.130;142.766;2022-07-19T00:45:39;99608.41;;;24.67;58.97
63700;BME280;49845;47.130;142.766;2022-07-19T00:48:10;99598.63;;;24.77;58.96
63700;BME280;49845;47.130;142.766;2022-07-19T00:50:40;99605.13;;;24.84;58.87
63700;BME280;49845;47.130;142.766;2022-07-19T00:53:12;99609.78;;;24.61;58.15
63700;BME280;49845;47.130;142.766;2022-07-19T00:55:45;99615.28;;;24.48;59.98
63700;BME280;49845;47.130;142.766;2022-07-19T00:58:18;99612.03;;;24.66;60.51
63700;BME280;49845;47.130;142.766;2022-07-19T01:00:48;99608.75;;;24.83;59.41
63700;BME280;49845;47.130;142.766;2022-07-19T01:03:19;99605.41;;;24.81;58.88
63700;BME280;49845;47.130;142.766;2022-07-19T01:05:50;99609.03;;;25.01;59.64
63700;BME280;49845;47.130;142.766;2022-07-19T01:08:21;99578.13;;;24.87;58.28
63700;BME280;49845;47.130;142.766;2022-07-19T01:10:51;99598.28;;;25.22;58.79
63700;BME280;49845;47.130;142.766;2022-07-19T01:13:24;99599.22;;;25.42;59.55
63700;BME280;49845;47.130;142.766;2022-07-19T01:15:54;99602.78;;;25.62;59.26
63700;BME280;49845;47.130;142.766;2022-07-19T01:18:25;99601.34;;;25.58;57.91
63700;BME280;49845;47.130;142.766;2022-07-19T01:20:57;99570.19;;;25.37;57.08
63700;BME280;49845;47.130;142.766;2022-07-19T01:23:30;99589.94;;;25.66;57.81
63700;BME280;49845;47.130;142.766;2022-07-19T01:26:00;99603.69;;;25.92;58.12
63700;BME280;49845;47.130;142.766;2022-07-19T01:28:31;99601.16;;;26.00;56.70
63700;BME280;49845;47.130;142.766;2022-07-19T01:31:01;99603.28;;;26.06;57.12
63700;BME280;49845;47.130;142.766;2022-07-19T01:33:32;99602.41;;;25.96;55.04
63700;BME280;49845;47.130;142.766;2022-07-19T01:36:07;99595.25;;;25.87;57.07
63700;BME280;49845;47.130;142.766;2022-07-19T01:38:40;99596.47;;;25.82;55.66
63700;BME280;49845;47.130;142.766;2022-07-19T01:41:10;99604.34;;;25.74;57.16
63700;BME280;49845;47.130;142.766;2022-07-19T01:43:41;99597.84;;;25.67;57.11
63700;BME280;49845;47.130;142.766;2022-07-19T01:46:12;99553.59;;;25.53;58.26
63700;BME280;49845;47.130;142.766;2022-07-19T01:48:46;99590.59;;;26.08;58.65
63700;BME280;49845;47.130;142.766;2022-07-19T01:51:28;99596.22;;;26.05;56.09
63700;BME280;49845;47.130;142.766;2022-07-19T01:54:19;99598.13;;;25.64;57.35
63700;BME280;49845;47.130;142.766;2022-07-19T01:56:50;99589.13;;;25.65;55.65
63700;BME280;49845;47.130;142.766;2022-07-19T01:59:20;99588.72;;;25.79;56.83
63700;BME280;49845;47.130;142.766;2022-07-19T02:01:51;99587.47;;;26.03;57.22
63700;BME280;49845;47.130;142.766;2022-07-19T02:04:21;99582.72;;;26.16;56.69
63700;BME280;49845;47.130;142.766;2022-07-19T02:06:52;99575.94;;;26.12;55.61
63700;BME280;49845;47.130;142.766;2022-07-19T02:09:25;99574.09;;;26.03;56.75
63700;BME280;49845;47.130;142.766;2022-07-19T02:11:55;99570.59;;;26.12;56.54
63700;BME280;49845;47.130;142.766;2022-07-19T02:14:26;99576.22;;;26.29;55.68
63700;BME280;49845;47.130;142.766;2022-07-19T02:16:56;99572.84;;;26.27;55.26
63700;BME280;49845;47.130;142.766;2022-07-19T02:19:27;99576.75;;;26.42;56.29
63700;BME280;49845;47.130;142.766;2022-07-19T02:21:58;99568.56;;;26.53;55.70
63700;BME280;49845;47.130;142.766;2022-07-19T02:24:30;99557.59;;;26.56;55.41
63700;BME280;49845;47.130;142.766;2022-07-19T02:27:00;99554.44;;;26.61;55.88
63700;BME280;49845;47.130;142.766;2022-07-19T02:29:31;99552.50;;;26.53;55.68
63700;BME280;49845;47.130;142.766;2022-07-19T02:32:01;99554.75;;;26.58;56.46
63700;BME280;49845;47.130;142.766;2022-07-19T02:34:32;99562.38;;;26.43;55.50
63700;BME280;49845;47.130;142.766;2022-07-19T02:37:03;99552.25;;;26.17;54.24
63700;BME280;49845;47.130;142.766;2022-07-19T02:39:36;99554.94;;;25.98;56.49
63700;BME280;49845;47.130;142.766;2022-07-19T02:42:06;99543.78;;;25.83;55.87
63700;BME280;49845;47.130;142.766;2022-07-19T02:44:37;99537.59;;;25.82;56.48
63700;BME280;49845;47.130;142.766;2022-07-19T02:47:08;99549.44;;;26.19;57.51
63700;BME280;49845;47.130;142.766;2022-07-19T02:49:38;99557.84;;;26.53;56.33
63700;BME280;49845;47.130;142.766;2022-07-19T02:52:09;99550.50;;;26.45;56.12
63700;BME280;49845;47.130;142.766;2022-07-19T02:54:41;99552.84;;;26.11;55.23
63700;BME280;49845;47.130;142.766;2022-07-19T02:57:11;99554.81;;;26.09;56.45
63700;BME280;49845;47.130;142.766;2022-07-19T02:59:42;99553.34;;;26.44;58.47
63700;BME280;49845;47.130;142.766;2022-07-19T03:02:13;99562.94;;;26.37;55.96
63700;BME280;49845;47.130;142.766;2022-07-19T03:04:43;99550.13;;;26.31;55.57
63700;BME280;49845;47.130;142.766;2022-07-19T03:07:14;99547.00;;;26.55;56.60
63700;BME280;49845;47.130;142.766;2022-07-19T03:09:46;99542.84;;;26.80;56.78
63700;BME280;49845;47.130;142.766;2022-07-19T03:12:16;99552.22;;;27.03;56.71
63700;BME280;49845;47.130;142.766;2022-07-19T03:14:47;99538.72;;;27.13;55.62
63700;BME280;49845;47.130;142.766;2022-07-19T03:17:18;99535.38;;;27.11;55.88
63700;BME280;49845;47.130;142.766;2022-07-19T03:19:48;99538.91;;;27.11;55.00
63700;BME280;49845;47.130;142.766;2022-07-19T03:22:19;99533.66;;;27.20;57.13
63700;BME280;49845;47.130;142.766;2022-07-19T03:24:51;99524.41;;;27.04;55.95
63700;BME280;49845;47.130;142.766;2022-07-19T03:27:24;99548.63;;;27.13;55.52
63700;BME280;49845;47.130;142.766;2022-07-19T03:29:55;99541.50;;;27.03;55.53
63700;BME280;49845;47.130;142.766;2022-07-19T03:32:26;99552.78;;;26.97;56.11
63700;BME280;49845;47.130;142.766;2022-07-19T03:34:57;99554.38;;;26.90;55.79
63700;BME280;49845;47.130;142.766;2022-07-19T03:37:28;99554.06;;;26.93;56.65
63700;BME280;49845;47.130;142.766;2022-07-19T03:40:00;99557.44;;;26.95;56.84
63700;BME280;49845;47.130;142.766;2022-07-19T03:42:30;99554.75;;;26.95;57.46
63700;BME280;49845;47.130;142.766;2022-07-19T03:45:01;99554.22;;;26.92;56.39
63700;BME280;49845;47.130;142.766;2022-07-19T03:47:32;99560.81;;;26.97;56.58
63700;BME280;49845;47.130;142.766;2022-07-19T03:50:03;99528.16;;;26.84;56.40
63700;BME280;49845;47.130;142.766;2022-07-19T03:52:33;99529.56;;;26.78;55.82
63700;BME280;49845;47.130;142.766;2022-07-19T03:55:06;99557.00;;;27.00;56.35
63700;BME280;49845;47.130;142.766;2022-07-19T03:57:37;99564.50;;;26.96;55.80
63700;BME280;49845;47.130;142.766;2022-07-19T04:00:08;99553.38;;;26.91;57.47
63700;BME280;49845;47.130;142.766;2022-07-19T04:02:39;99559.81;;;26.98;56.06
63700;BME280;49845;47.130;142.766;2022-07-19T04:05:10;99558.00;;;26.99;56.35
63700;BME280;49845;47.130;142.766;2022-07-19T04:07:42;99538.88;;;26.84;55.61
63700;BME280;49845;47.130;142.766;2022-07-19T04:10:14;99563.50;;;26.97;56.72
63700;BME280;49845;47.130;142.766;2022-07-19T04:12:45;99556.88;;;27.01;56.57
63700;BME280;49845;47.130;142.766;2022-07-19T04:15:15;99564.63;;;27.04;56.41
63700;BME280;49845;47.130;142.766;2022-07-19T04:17:46;99572.66;;;27.04;56.09
63700;BME280;49845;47.130;142.766;2022-07-19T04:20:17;99565.88;;;27.00;55.81
63700;BME280;49845;47.130;142.766;2022-07-19T04:22:47;99578.31;;;27.01;55.84
63700;BME280;49845;47.130;142.766;2022-07-19T04:25:20;99570.38;;;27.09;55.98
63700;BME280;49845;47.130;142.766;2022-07-19T04:27:50;99576.53;;;27.29;56.97
63700;BME280;49845;47.130;142.766;2022-07-19T04:30:21;99551.44;;;27.21;56.52
63700;BME280;49845;47.130;142.766;2022-07-19T04:32:52;99576.09;;;27.52;55.21
63700;BME280;49845;47.130;142.766;2022-07-19T04:35:23;99571.28;;;27.56;53.90
63700;BME280;49845;47.130;142.766;2022-07-19T04:37:53;99575.34;;;27.60;53.56
63700;BME280;49845;47.130;142.766;2022-07-19T04:40:26;99572.91;;;27.66;53.89
63700;BME280;49845;47.130;142.766;2022-07-19T04:42:56;99575.22;;;27.61;52.85
63700;BME280;49845;47.130;142.766;2022-07-19T04:45:27;99572.66;;;27.60;53.78
63700;BME280;49845;47.130;142.766;2022-07-19T04:47:58;99583.50;;;27.40;54.03
63700;BME280;49845;47.130;142.766;2022-07-19T04:50:29;99581.94;;;27.20;54.48
63700;BME280;49845;47.130;142.766;2022-07-19T04:52:59;99575.00;;;26.80;53.96
63700;BME280;49845;47.130;142.766;2022-07-19T04:55:32;99583.69;;;26.54;55.29
63700;BME280;49845;47.130;142.766;2022-07-19T04:58:03;99583.97;;;26.32;54.77
63700;BME280;49845;47.130;142.766;2022-07-19T05:00:34;99586.34;;;26.06;55.55
63700;BME280;49845;47.130;142.766;2022-07-19T05:03:04;99587.00;;;25.78;56.29
63700;BME280;49845;47.130;142.766;2022-07-19T05:05:35;99589.13;;;25.65;56.92
63700;BME280;49845;47.130;142.766;2022-07-19T05:08:06;99591.22;;;25.52;57.33
63700;BME280;49845;47.130;142.766;2022-07-19T05:10:38;99584.81;;;25.33;57.07
63700;BME280;49845;47.130;142.766;2022-07-19T05:13:08;99596.63;;;25.21;57.45
63700;BME280;49845;47.130;142.766;2022-07-19T05:15:39;99590.59;;;25.08;58.29
63700;BME280;49845;47.130;142.766;2022-07-19T05:18:10;99589.19;;;25.04;58.67
63700;BME280;49845;47.130;142.766;2022-07-19T05:20:41;99598.94;;;24.84;57.68
63700;BME280;49845;47.130;142.766;2022-07-19T05:23:11;99595.03;;;24.46;58.10
63700;BME280;49845;47.130;142.766;2022-07-19T05:25:44;99566.69;;;24.13;60.74
63700;BME280;49845;47.130;142.766;2022-07-19T05:28:14;99600.66;;;24.10;61.24
63700;BME280;49845;47.130;142.766;2022-07-19T05:30:51;99608.00;;;23.86;61.95
63700;BME280;49845;47.130;142.766;2022-07-19T05:33:21;99598.81;;;23.67;63.71
63700;BME280;49845;47.130;142.766;2022-07-19T05:35:52;99595.31;;;23.56;64.51
63700;BME280;49845;47.130;142.766;2022-07-19T05:38:24;99601.03;;;23.62;64.99
63700;BME280;49845;47.130;142.766;2022-07-19T05:41:00;99595.44;;;23.65;64.93
63700;BME280;49845;47.130;142.766;2022-07-19T05:43:30;99602.22;;;23.69;65.85
63700;BME280;49845;47.130;142.766;2022-07-19T05:46:01;99599.56;;;23.58;65.76
63700;BME280;49845;47.130;142.766;2022-07-19T05:48:32;99599.16;;;23.19;66.69
63700;BME280;49845;47.130;142.766;2022-07-19T05:51:03;99577.56;;;23.11;67.10
63700;BME280;49845;47.130;142.766;2022-07-19T05:53:35;99612.00;;;23.14;66.75
63700;BME280;49845;47.130;142.766;2022-07-19T05:56:08;99607.94;;;22.75;65.57
63700;BME280;49845;47.130;142.766;2022-07-19T05:58:39;99615.97;;;22.51;66.50
63700;BME280;49845;47.130;142.766;2022-07-19T06:01:10;99608.91;;;22.38;67.45
63700;BME280;49845;47.130;142.766;2022-07-19T06:03:52;99601.53;;;22.31;68.20
63700;BME280;49845;47.130;142.766;2022-07-19T06:06:27;99592.34;;;22.11;68.22
63700;BME280;49845;47.130;142.766;2022-07-19T06:08:58;99614.38;;;22.13;68.88
63700;BME280;49845;47.130;142.766;2022-07-19T06:11:31;99605.38;;;22.03;68.92
63700;BME280;49845;47.130;142.766;2022-07-19T06:14:02;99620.06;;;21.84;69.03
63700;BME280;49845;47.130;142.766;2022-07-19T06:16:35;99616.28;;;21.63;69.50
63700;BME280;49845;47.130;142.766;2022-07-19T06:19:07;99596.44;;;21.80;69.75
63700;BME280;49845;47.130;142.766;2022-07-19T06:21:39;99617.53;;;22.18;68.88
63700;BME280;49845;47.130;142.766;2022-07-19T06:24:10;99621.50;;;22.36;68.38
63700;BME280;49845;47.130;142.766;2022-07-19T06:26:42;99617.16;;;22.35;68.54
63700;BME280;49845;47.130;142.766;2022-07-19T06:29:13;99617.19;;;22.47;68.69
63700;BME280;49845;47.130;142.766;2022-07-19T06:31:43;99625.03;;;22.37;67.37
63700;BME280;49845;47.130;142.766;2022-07-19T06:34:14;99619.81;;;22.35;68.50
63700;BME280;49845;47.130;142.766;2022-07-19T06:36:45;99625.38;;;22.44;67.19
63700;BME280;49845;47.130;142.766;2022-07-19T06:39:15;99617.66;;;22.40;68.09
63700;BME280;49845;47.130;142.766;2022-07-19T06:41:48;99609.41;;;22.32;67.65
63700;BME280;49845;47.130;142.766;2022-07-19T06:44:18;99613.25;;;22.28;68.95
63700;BME280;49845;47.130;142.766;2022-07-19T06:46:49;99622.22;;;22.27;68.73
63700;BME280;49845;47.130;142.766;2022-07-19T06:49:22;99627.16;;;22.08;67.46
63700;BME280;49845;47.130;142.766;2022-07-19T06:51:53;99622.66;;;21.97;68.16
63700;BME280;49845;47.130;142.766;2022-07-19T06:54:23;99626.38;;;21.94;68.66
63700;BME280;49845;47.130;142.766;2022-07-19T06:56:56;99623.22;;;21.89;69.17
63700;BME280;49845;47.130;142.766;2022-07-19T06:59:27;99634.47;;;21.93;68.36
63700;BME280;49845;47.130;142.766;2022-07-19T07:01:57;99635.66;;;21.65;69.05
63700;BME280;49845;47.130;142.766;2022-07-19T07:04:28;99640.81;;;21.42;70.04
63700;BME280;49845;47.130;142.766;2022-07-19T07:07:12;99636.19;;;21.31;69.41
63700;BME280;49845;47.130;142.766;2022-07-19T07:09:43;99636.97;;;21.21;70.09
63700;BME280;49845;47.130;142.766;2022-07-19T07:12:16;99638.22;;;21.28;70.55
63700;BME280;49845;47.130;142.766;2022-07-19T07:14:46;99639.50;;;21.35;70.53
63700;BME280;49845;47.130;142.766;2022-07-19T07:17:17;99636.75;;;21.24;70.31
63700;BME280;49845;47.130;142.766;2022-07-19T07:19:48;99652.69;;;21.24;69.08
63700;BME280;49845;47.130;142.766;2022-07-19T07:22:19;99598.31;;;20.78;70.53
63700;BME280;49845;47.130;142.766;2022-07-19T07:24:49;99650.50;;;20.92;70.04
63700;BME280;49845;47.130;142.766;2022-07-19T07:27:22;99644.66;;;20.87;70.92
63700;BME280;49845;47.130;142.766;2022-07-19T07:29:52;99634.22;;;20.84;71.49
63700;BME280;49845;47.130;142.766;2022-07-19T07:32:23;99638.66;;;21.09;70.80
63700;BME280;49845;47.130;142.766;2022-07-19T07:34:55;99641.25;;;20.98;69.65
63700;BME280;49845;47.130;142.766;2022-07-19T07:37:26;99640.81;;;20.91;70.44
63700;BME280;49845;47.130;142.766;2022-07-19T07:39:56;99641.88;;;20.76;70.78
63700;BME280;49845;47.130;142.766;2022-07-19T07:42:30;99633.97;;;20.61;71.54
63700;BME280;49845;47.130;142.766;2022-07-19T07:45:01;99634.78;;;20.49;71.86
63700;BME280;49845;47.130;142.766;2022-07-19T07:47:32;99638.63;;;20.45;71.76
63700;BME280;49845;47.130;142.766;2022-07-19T07:50:05;99631.28;;;20.09;72.86
63700;BME280;49845;47.130;142.766;2022-07-19T07:52:36;99650.03;;;19.78;73.90
63700;BME280;49845;47.130;142.766;2022-07-19T07:55:07;99578.88;;;19.16;74.36
63700;BME280;49845;47.130;142.766;2022-07-19T07:57:56;99651.41;;;19.43;75.46
63700;BME280;49845;47.130;142.766;2022-07-19T08:00:27;99655.66;;;19.45;75.91
63700;BME280;49845;47.130;142.766;2022-07-19T08:02:58;99659.66;;;19.38;76.24
63700;BME280;49845;47.130;142.766;2022-07-19T08:05:29;99627.94;;;19.36;76.32
63700;BME280;49845;47.130;142.766;2022-07-19T08:08:00;99659.91;;;19.62;75.91
63700;BME280;49845;47.130;142.766;2022-07-19T08:10:31;99661.19;;;19.83;75.42
63700;BME280;49845;47.130;142.766;2022-07-19T08:13:05;99627.16;;;19.77;74.79
63700;BME280;49845;47.130;142.766;2022-07-19T08:15:36;99664.91;;;20.08;74.46
63700;BME280;49845;47.130;142.766;2022-07-19T08:18:07;99672.97;;;19.79;73.97
63700;BME280;49845;47.130;142.766;2022-07-19T08:20:38;99674.66;;;19.52;74.86
63700;BME280;49845;47.130;142.766;2022-07-19T08:23:08;99675.06;;;19.31;75.69
63700;BME280;49845;47.130;142.766;2022-07-19T08:25:39;99615.09;;;18.87;76.38
63700;BME280;49845;47.130;142.766;2022-07-19T08:28:11;99673.91;;;19.07;76.20
63700;BME280;49845;47.130;142.766;2022-07-19T08:30:42;99682.63;;;19.09;76.23
63700;BME280;49845;47.130;142.766;2022-07-19T08:33:33;99678.00;;;19.12;76.24
63700;BME280;49845;47.130;142.766;2022-07-19T08:36:04;99693.94;;;18.96;76.47
63700;BME280;49845;47.130;142.766;2022-07-19T08:38:34;99690.16;;;18.86;77.01
63700;BME280;49845;47.130;142.766;2022-07-19T08:41:06;99683.63;;;18.62;77.65
63700;BME280;49845;47.130;142.766;2022-07-19T08:43:38;99702.28;;;18.44;77.98
63700;BME280;49845;47.130;142.766;2022-07-19T08:46:09;99703.34;;;18.26;79.54
63700;BME280;49845;47.130;142.766;2022-07-19T08:48:40;99701.31;;;18.15;79.79
63700;BME280;49845;47.130;142.766;2022-07-19T08:51:18;99701.91;;;18.04;80.55
63700;BME280;49845;47.130;142.766;2022-07-19T08:53:50;99710.53;;;18.08;80.83
63700;BME280;49845;47.130;142.766;2022-07-19T08:56:21;99703.03;;;18.00;81.23
63700;BME280;49845;47.130;142.766;2022-07-19T08:59:10;99705.78;;;17.83;81.18
63700;BME280;49845;47.130;142.766;2022-07-19T09:01:40;99714.63;;;17.82;81.52
63700;BME280;49845;47.130;142.766;2022-07-19T09:04:13;99692.91;;;17.59;81.86
63700;BME280;49845;47.130;142.766;2022-07-19T09:06:45;99709.97;;;17.69;81.76
63700;BME280;49845;47.130;142.766;2022-07-19T09:09:17;99716.28;;;17.67;81.92
63700;BME280;49845;47.130;142.766;2022-07-19T09:11:50;99701.63;;;17.61;81.79
63700;BME280;49845;47.130;142.766;2022-07-19T09:14:24;99717.16;;;17.67;82.06
63700;BME280;49845;47.130;142.766;2022-07-19T09:16:58;99715.09;;;17.73;81.83
63700;BME280;49845;47.130;142.766;2022-07-19T09:19:33;99723.81;;;17.75;82.13
63700;BME280;49845;47.130;142.766;2022-07-19T09:22:05;99717.41;;;17.79;81.73
63700;BME280;49845;47.130;142.766;2022-07-19T09:24:38;99712.28;;;17.76;81.64
63700;BME280;49845;47.130;142.766;2022-07-19T09:27:10;99712.72;;;17.68;81.49
63700;BME280;49845;47.130;142.766;2022-07-19T09:29:44;99725.81;;;17.69;81.88
63700;BME280;49845;47.130;142.766;2022-07-19T09:32:16;99666.47;;;17.28;82.15
63700;BME280;49845;47.130;142.766;2022-07-19T09:34:50;99715.81;;;17.43;82.56
63700;BME280;49845;47.130;142.766;2022-07-19T09:37:22;99723.78;;;17.25;83.19
63700;BME280;49845;47.130;142.766;2022-07-19T09:39:56;99735.13;;;17.28;84.13
63700;BME280;49845;47.130;142.766;2022-07-19T09:42:35;99736.16;;;17.08;84.70
63700;BME280;49845;47.130;142.766;2022-07-19T09:45:09;99737.69;;;16.94;85.45
63700;BME280;49845;47.130;142.766;2022-07-19T09:47:41;99724.13;;;16.85;86.04
63700;BME280;49845;47.130;142.766;2022-07-19T09:50:14;99733.75;;;16.86;86.22
63700;BME280;49845;47.130;142.766;2022-07-19T09:52:48;99732.03;;;16.85;86.87
63700;BME280;49845;47.130;142.766;2022-07-19T09:55:19;99735.25;;;16.72;86.94
63700;BME280;49845;47.130;142.766;2022-07-19T09:57:51;99752.47;;;16.62;87.44
63700;BME280;49845;47.130;142.766;2022-07-19T10:00:24;99751.09;;;16.55;87.86
63700;BME280;49845;47.130;142.766;2022-07-19T10:02:56;99744.69;;;16.42;88.34
63700;BME280;49845;47.130;142.766;2022-07-19T10:05:28;99748.28;;;16.41;88.79
63700;BME280;49845;47.130;142.766;2022-07-19T10:08:00;99746.84;;;16.33;89.02
63700;BME280;49845;47.130;142.766;2022-07-19T10:10:31;99752.41;;;16.27;89.58
63700;BME280;49845;47.130;142.766;2022-07-19T10:13:02;99752.72;;;16.21;89.96
63700;BME280;49845;47.130;142.766;2022-07-19T10:15:39;99736.38;;;15.95;90.36
63700;BME280;49845;47.130;142.766;2022-07-19T10:18:14;99738.22;;;15.93;90.57
63700;BME280;49845;47.130;142.766;2022-07-19T10:20:52;99761.56;;;16.01;90.88
63700;BME280;49845;47.130;142.766;2022-07-19T10:23:26;99771.09;;;16.04;91.15
63700;BME280;49845;47.130;142.766;2022-07-19T10:25:57;99767.25;;;15.92;91.27
63700;BME280;49845;47.130;142.766;2022-07-19T10:28:32;99725.34;;;15.67;91.53
63700;BME280;49845;47.130;142.766;2022-07-19T10:31:30;99766.81;;;15.82;91.81
63700;BME280;49845;47.130;142.766;2022-07-19T10:34:05;99797.75;;;15.98;91.94
63700;BME280;49845;47.130;142.766;2022-07-19T10:36:38;99790.91;;;15.93;91.86
63700;BME280;49845;47.130;142.766;2022-07-19T10:39:26;99794.44;;;15.92;91.70
63700;BME280;49845;47.130;142.766;2022-07-19T10:42:17;99802.34;;;15.92;92.24
63700;BME280;49845;47.130;142.766;2022-07-19T10:45:13;99802.44;;;15.91;92.38
63700;BME280;49845;47.130;142.766;2022-07-19T10:48:18;99807.13;;;15.84;92.37
63700;BME280;49845;47.130;142.766;2022-07-19T10:50:57;99798.31;;;15.85;92.46
63700;BME280;49845;47.130;142.766;2022-07-19T10:53:55;99812.00;;;15.93;92.32
63700;BME280;49845;47.130;142.766;2022-07-19T10:56:56;99811.94;;;15.95;92.53
63700;BME280;49845;47.130;142.766;2022-07-19T10:59:41;99806.97;;;15.87;92.32
63700;BME280;49845;47.130;142.766;2022-07-19T11:02:32;99811.25;;;15.90;92.47
63700;BME280;49845;47.130;142.766;2022-07-19T11:05:23;99807.13;;;15.84;92.33
63700;BME280;49845;47.130;142.766;2022-07-19T11:07:56;99794.44;;;15.73;92.55
63700;BME280;49845;47.130;142.766;2022-07-19T11:10:28;99823.72;;;15.86;92.72
63700;BME280;49845;47.130;142.766;2022-07-19T11:12:59;99808.97;;;15.82;92.70
63700;BME280;49845;47.130;142.766;2022-07-19T11:15:30;99812.69;;;15.78;92.87
63700;BME280;49845;47.130;142.766;2022-07-19T11:18:06;99808.72;;;15.68;93.01
63700;BME280;49845;47.130;142.766;2022-07-19T11:20:39;99809.53;;;15.70;93.57
63700;BME280;49845;47.130;142.766;2022-07-19T11:23:09;99810.25;;;15.73;93.44
63700;BME280;49845;47.130;142.766;2022-07-19T11:25:47;99824.53;;;15.68;93.52
63700;BME280;49845;47.130;142.766;2022-07-19T11:28:23;99764.66;;;15.32;93.61
63700;BME280;49845;47.130;142.766;2022-07-19T11:30:54;99820.31;;;15.64;93.66
63700;BME280;49845;47.130;142.766;2022-07-19T11:33:24;99817.72;;;15.62;94.02
63700;BME280;49845;47.130;142.766;2022-07-19T11:35:58;99794.91;;;15.42;94.02
63700;BME280;49845;47.130;142.766;2022-07-19T11:38:37;99824.28;;;15.53;94.27
63700;BME280;49845;47.130;142.766;2022-07-19T11:41:13;99804.53;;;15.43;94.46
63700;BME280;49845;47.130;142.766;2022-07-19T11:43:45;99822.97;;;15.43;95.03
63700;BME280;49845;47.130;142.766;2022-07-19T11:46:24;99817.84;;;15.40;95.27
63700;BME280;49845;47.130;142.766;2022-07-19T11:48:56;99819.53;;;15.41;95.60
63700;BME280;49845;47.130;142.766;2022-07-19T11:51:29;99783.59;;;15.20;95.55
63700;BME280;49845;47.130;142.766;2022-07-19T11:54:01;99798.75;;;15.35;95.79
63700;BME280;49845;47.130;142.766;2022-07-19T11:56:33;99814.28;;;15.41;95.71
63700;BME280;49845;47.130;142.766;2022-07-19T11:59:06;99815.25;;;15.39;95.92
63700;BME280;49845;47.130;142.766;2022-07-19T12:01:39;99807.41;;;15.37;96.00
63700;BME280;49845;47.130;142.766;2022-07-19T12:04:12;99807.56;;;15.34;96.00
63700;BME280;49845;47.130;142.766;2022-07-19T12:06:47;99818.22;;;15.31;95.89
63700;BME280;49845;47.130;142.766;2022-07-19T12:09:20;99806.09;;;15.27;96.19
63700;BME280;49845;47.130;142.766;2022-07-19T12:11:56;99742.97;;;14.86;96.35
63700;BME280;49845;47.130;142.766;2022-07-19T12:14:28;99819.88;;;15.34;96.58
63700;BME280;49845;47.130;142.766;2022-07-19T12:17:13;99827.63;;;15.37;96.27
63700;BME280;49845;47.130;142.766;2022-07-19T12:19:46;99806.38;;;15.21;96.38
63700;BME280;49845;47.130;142.766;2022-07-19T12:22:28;99766.16;;;14.97;96.31
63700;BME280;49845;47.130;142.766;2022-07-19T12:24:59;99827.91;;;15.30;96.56
63700;BME280;49845;47.130;142.766;2022-07-19T12:27:30;99829.13;;;15.22;96.90
63700;BME280;49845;47.130;142.766;2022-07-19T12:30:03;99817.28;;;15.12;97.09
63700;BME280;49845;47.130;142.766;2022-07-19T12:32:35;99834.81;;;15.13;97.46
63700;BME280;49845;47.130;142.766;2022-07-19T12:35:07;99829.28;;;15.19;97.74
63700;BME280;49845;47.130;142.766;2022-07-19T12:37:42;99833.75;;;15.17;97.70
63700;BME280;49845;47.130;142.766;2022-07-19T12:40:17;99840.75;;;15.18;97.36
63700;BME280;49845;47.130;142.766;2022-07-19T12:42:51;99840.19;;;15.09;97.34
63700;BME280;49845;47.130;142.766;2022-07-19T12:45:29;99839.50;;;15.04;97.50
63700;BME280;49845;47.130;142.766;2022-07-19T12:48:01;99760.88;;;14.56;97.38
63700;BME280;49845;47.130;142.766;2022-07-19T12:50:33;99806.53;;;14.75;97.73
63700;BME280;49845;47.130;142.766;2022-07-19T12:53:08;99840.94;;;14.91;98.42
63700;BME280;49845;47.130;142.766;2022-07-19T12:55:41;99802.44;;;14.68;98.75
63700;BME280;49845;47.130;142.766;2022-07-19T12:58:14;99779.09;;;14.60;98.93
63700;BME280;49845;47.130;142.766;2022-07-19T13:01:06;99843.44;;;14.94;98.59
63700;BME280;49845;47.130;142.766;2022-07-19T13:03:37;99848.56;;;14.97;98.83
63700;BME280;49845;47.130;142.766;2022-07-19T13:06:08;99846.88;;;14.96;98.73
63700;BME280;49845;47.130;142.766;2022-07-19T13:08:40;99849.50;;;14.96;98.62